Terminal Aerodrome Forecast
Issued by NWS Sioux Falls, SD

Home | Current Version | Previous Version | Text Only | Print | Product List | Glossary Off
Versions: 1 2 3 4 5 6 7 8 9 10 11 12 13 14 15 16 17 18 19 20 21 22 23

360
FTUS43 KFSD 012320
TAFSUX
TAF
KSUX 012320Z 0200/0224 01007KT P6SM BKN050 BKN070
     FM020200 33004KT P6SM SCT040
     FM021000 VRB03KT 5SM BR SCT040
     FM021500 32005KT P6SM SCT040
     FM021900 VRB04KT P6SM OVC150=

USA.gov is the U.S. government's official web portal to all federal, state and local government web resources and services.